createdAt,value
2023-03-29T00:16:04.030Z,4.3
2023-03-29T00:26:07.864Z,4.4
2023-03-29T00:36:07.982Z,4.3
2023-03-29T00:46:09.699Z,4.3
2023-03-29T00:56:12.160Z,4.3
2023-03-29T01:06:14.724Z,4.3
2023-03-29T01:16:17.084Z,4.3
2023-03-29T01:26:19.212Z,4.4
2023-03-29T01:36:21.260Z,4.4
2023-03-29T01:46:23.398Z,4.4
2023-03-29T01:56:25.669Z,4.6
2023-03-29T02:06:28.028Z,4.8
2023-03-29T02:16:30.144Z,5
2023-03-29T02:26:31.946Z,5
2023-03-29T02:36:34.624Z,5
2023-03-29T02:46:36.339Z,5.2
2023-03-29T03:06:41.211Z,5.4
2023-03-29T03:16:43.178Z,5.4
2023-03-29T03:26:45.362Z,5.4
2023-03-29T03:46:50.146Z,5.6
2023-03-29T03:56:51.989Z,5.6
2023-03-29T04:06:54.522Z,5.8
2023-03-29T04:16:56.461Z,6
2023-03-29T04:26:58.656Z,6
2023-03-29T04:37:00.975Z,5.9
2023-03-29T04:47:02.842Z,5.8
2023-03-29T04:57:05.475Z,5.7
2023-03-29T05:07:07.272Z,5.8
2023-03-29T05:17:09.259Z,5.8
2023-03-29T05:27:11.404Z,5.9
2023-03-29T05:37:13.356Z,5.9
2023-03-29T05:47:15.412Z,6
2023-03-29T05:57:18.153Z,6
2023-03-29T06:07:20.509Z,6.1
2023-03-29T06:17:22.260Z,6.1
2023-03-29T06:27:24.596Z,6.2
2023-03-29T06:37:27.156Z,6.2
2023-03-29T06:47:29.387Z,6.4
2023-03-29T07:07:33.703Z,6.9
2023-03-29T07:17:36.572Z,7.1
2023-03-29T07:27:38.662Z,7.3
2023-03-29T07:47:42.676Z,7.9
2023-03-29T07:57:45.189Z,8
2023-03-29T08:07:47.037Z,8.3
2023-03-29T08:17:49.217Z,8.4
2023-03-29T08:27:51.424Z,8.5
2023-03-29T08:47:56.406Z,8.9
2023-03-29T08:57:58.183Z,8.9
2023-03-29T09:08:00.814Z,9.1
2023-03-29T09:28:04.918Z,9.3
2023-03-29T09:38:06.634Z,8.9
2023-03-29T09:48:08.581Z,8.7
2023-03-29T09:58:10.662Z,8.7
2023-03-29T10:38:18.451Z,9.2
2023-03-29T11:18:26.072Z,10.3
2023-03-29T11:28:28.516Z,10.4
2023-03-29T11:48:33.220Z,11.2
2023-03-29T12:08:37.789Z,12.2
2023-03-29T12:28:42.256Z,12.7
2023-03-29T12:58:48.785Z,13.3
2023-03-29T13:48:59.725Z,13.7
2023-03-29T13:59:02.329Z,13.6
2023-03-29T14:09:04.779Z,13.6
2023-03-29T14:19:06.875Z,13.6
2023-03-29T14:29:08.916Z,14.1
2023-03-29T14:39:11.261Z,14
2023-03-29T14:49:13.229Z,14.1
2023-03-29T14:59:15.347Z,14.3
2023-03-29T15:09:17.116Z,14.3
2023-03-29T15:19:18.970Z,14.4
2023-03-29T15:29:21.400Z,14.3
2023-03-29T15:39:23.533Z,14.2
2023-03-29T15:49:25.901Z,14.4
2023-03-29T15:59:27.765Z,14.4
2023-03-29T16:09:30.263Z,14.4
2023-03-29T16:19:32.130Z,14.4
2023-03-29T16:29:34.298Z,14.5
2023-03-29T16:39:36.238Z,14.5
2023-03-29T16:49:40.219Z,14.5
2023-03-29T16:59:40.423Z,14.4
2023-03-29T17:09:42.609Z,14.4
2023-03-29T17:19:45.251Z,14.4
2023-03-29T17:29:47.733Z,14.4
2023-03-29T17:32:26.182Z,14.4
2023-03-29T17:39:59.040Z,14.4
2023-03-29T17:50:01.673Z,14.5
2023-03-29T18:00:04.207Z,14.5
2023-03-29T18:10:06.351Z,14.5
2023-03-29T18:30:11.418Z,14.5
2023-03-29T18:40:13.437Z,14.5
2023-03-29T18:50:15.438Z,14.5
2023-03-29T19:00:17.936Z,14.5
2023-03-29T19:10:20.279Z,14.4
2023-03-29T19:30:24.079Z,14.4
2023-03-29T19:40:25.938Z,14.3
2023-03-29T19:50:28.018Z,14.3
2023-03-29T20:00:29.755Z,14.2
2023-03-29T20:10:32.067Z,14.1
2023-03-29T20:20:34.073Z,14
2023-03-29T20:30:36.266Z,13.9
2023-03-29T20:40:38.648Z,13.8
2023-03-29T20:50:41.068Z,13.7
2023-03-29T21:00:42.958Z,13.6
2023-03-29T21:10:45.024Z,13.6
2023-03-29T21:20:46.911Z,13.6
2023-03-29T21:40:51.662Z,13.5
2023-03-29T22:00:56.222Z,13.5
2023-03-29T22:10:58.837Z,13.5
2023-03-29T22:21:01.632Z,13.5
2023-03-29T22:31:03.559Z,13.4
2023-03-29T22:41:05.760Z,13.3
2023-03-29T22:51:07.206Z,13.3
2023-03-29T23:01:09.701Z,13.3
2023-03-29T23:21:14.460Z,13.4
2023-03-29T23:41:19.056Z,13.1
